Time;durP1;ratioP1;P1;durP2;ratioP2;P2;SDS_P1;SDS_P2;PMS_P1;PMS_P2;Temp;Humidity;BMP_temperature;BMP_pressure;BME280_temperature;BME280_humidity;BME280_pressure;Samples;Min_cycle;Max_cycle;Signal;HPM_P1;HPM_P2
2024/04/05 00:00:55;;;;;;;1.57;1.23;;;11.90;1.00;;;;;;5104725;27;20618;-74
2024/04/05 00:03:22;;;;;;;3.87;1.70;;;11.90;1.00;;;;;;5095946;27;20955;-74
2024/04/05 00:05:51;;;;;;;4.60;1.53;;;11.90;1.00;;;;;;5082673;28;23072;-76
2024/04/05 00:08:18;;;;;;;3.17;1.57;;;11.90;1.00;;;;;;5079499;27;20463;-72
2024/04/05 00:10:45;;;;;;;2.90;1.37;;;11.90;1.00;;;;;;5079533;28;20487;-72
2024/04/05 00:13:12;;;;;;;4.83;1.73;;;12.00;1.00;;;;;;5077985;28;20454;-74
2024/04/05 00:15:39;;;;;;;2.33;1.20;;;12.10;1.00;;;;;;5078723;28;20630;-72
2024/04/05 00:18:06;;;;;;;3.20;1.97;;;12.10;1.00;;;;;;5077841;28;20481;-74
2024/04/05 00:20:32;;;;;;;5.90;1.87;;;12.10;1.00;;;;;;5079654;28;20983;-73
2024/04/05 00:22:58;;;;;;;4.03;1.27;;;12.20;1.00;;;;;;5080242;28;20467;-72
2024/04/05 00:25:25;;;;;;;5.30;2.00;;;12.20;1.00;;;;;;5081639;28;20459;-72
2024/04/05 00:27:54;;;;;;;3.20;1.70;;;12.20;1.00;;;;;;5077562;28;20455;-75
2024/04/05 00:30:20;;;;;;;2.57;1.40;;;12.30;1.00;;;;;;5081134;28;20470;-75
2024/04/05 00:32:47;;;;;;;4.60;1.77;;;12.30;1.00;;;;;;5099538;27;20454;-74
2024/04/05 00:35:14;;;;;;;5.73;1.50;;;12.30;1.00;;;;;;5103864;27;20462;-74
2024/04/05 00:37:40;;;;;;;2.50;1.37;;;12.40;1.00;;;;;;5103678;27;20510;-74
2024/04/05 00:40:07;;;;;;;4.80;1.73;;;12.30;1.00;;;;;;5106733;27;21065;-73
2024/04/05 00:42:37;;;;;;;3.47;1.60;;;12.30;1.00;;;;;;5104378;27;20548;-74
2024/04/05 00:45:05;;;;;;;4.80;1.80;;;12.30;1.00;;;;;;5101639;27;20576;-73
2024/04/05 00:47:32;;;;;;;4.13;1.73;;;12.30;1.00;;;;;;5101123;27;20508;-72
2024/04/05 00:50:00;;;;;;;5.07;1.40;;;12.30;1.00;;;;;;5089109;27;20570;-74
2024/04/05 00:52:27;;;;;;;2.40;1.60;;;12.30;1.00;;;;;;5080529;28;20507;-75
2024/04/05 00:54:53;;;;;;;4.70;1.90;;;12.30;1.00;;;;;;5081050;28;20495;-73
2024/04/05 00:57:21;;;;;;;4.70;2.17;;;12.30;1.00;;;;;;5083274;28;20428;-73
2024/04/05 00:59:47;;;;;;;4.37;1.33;;;12.30;1.00;;;;;;5080180;28;20896;-73
2024/04/05 01:02:15;;;;;;;2.87;1.50;;;12.20;1.00;;;;;;5101301;27;20452;-74
2024/04/05 01:04:41;;;;;;;2.67;1.23;;;12.20;1.00;;;;;;5089972;27;20488;-75
2024/04/05 01:07:09;;;;;;;2.50;1.57;;;12.20;1.00;;;;;;5102683;27;20454;-75
2024/04/05 01:09:35;;;;;;;2.40;1.40;;;12.10;1.00;;;;;;5105481;27;20586;-75
2024/04/05 01:12:02;;;;;;;4.40;1.87;;;12.10;1.00;;;;;;5088813;27;20454;-76
2024/04/05 01:14:28;;;;;;;2.87;1.47;;;12.00;1.00;;;;;;5081051;27;20465;-76
2024/04/05 01:16:55;;;;;;;4.43;1.47;;;11.90;1.00;;;;;;5099907;27;20458;-76
2024/04/05 01:19:23;;;;;;;2.20;1.60;;;11.90;1.00;;;;;;5104137;27;20519;-75
2024/04/05 01:21:52;;;;;;;2.83;1.37;;;11.80;1.00;;;;;;5103786;27;20476;-75
2024/04/05 01:24:20;;;;;;;2.70;1.40;;;11.80;1.00;;;;;;5106064;27;20586;-78
2024/04/05 01:26:46;;;;;;;4.13;1.77;;;11.70;1.00;;;;;;5104132;27;21276;-74
2024/04/05 01:29:12;;;;;;;4.03;1.90;;;11.80;1.00;;;;;;5100818;27;20513;-75
2024/04/05 01:31:40;;;;;;;2.97;1.90;;;11.70;1.00;;;;;;5102395;27;21164;-76
2024/04/05 01:34:06;;;;;;;4.40;1.97;;;11.70;1.00;;;;;;5094235;27;20550;-76
2024/04/05 01:36:33;;;;;;;4.17;1.70;;;11.70;1.00;;;;;;5082228;28;20451;-74
2024/04/05 01:38:59;;;;;;;3.70;1.87;;;11.70;1.00;;;;;;5084776;28;20447;-75
2024/04/05 01:41:27;;;;;;;2.60;1.67;;;11.70;1.00;;;;;;5085211;27;20454;-75
2024/04/05 01:43:53;;;;;;;3.27;2.30;;;11.70;1.00;;;;;;5081627;27;20483;-76
2024/04/05 01:46:20;;;;;;;4.23;1.67;;;11.80;1.00;;;;;;5081652;28;20458;-76
2024/04/05 01:48:46;;;;;;;5.20;2.30;;;11.70;1.00;;;;;;5085445;27;20503;-76
2024/04/05 01:51:13;;;;;;;5.10;1.77;;;11.80;1.00;;;;;;5081288;27;20546;-76
2024/04/05 01:53:39;;;;;;;2.80;1.60;;;11.90;1.00;;;;;;5085692;27;20561;-76
2024/04/05 01:56:06;;;;;;;5.87;2.63;;;11.90;1.00;;;;;;5092924;27;20451;-76
2024/04/05 01:58:34;;;;;;;3.40;2.07;;;12.00;1.00;;;;;;5080046;28;20476;-75
2024/04/05 02:01:02;;;;;;;3.17;1.70;;;12.00;1.00;;;;;;5082073;27;20455;-75
2024/04/05 02:03:28;;;;;;;5.50;1.70;;;12.00;1.00;;;;;;5083749;28;20479;-75
2024/04/05 02:05:55;;;;;;;4.07;1.87;;;12.10;1.00;;;;;;5084363;28;20459;-75
2024/04/05 02:08:21;;;;;;;3.60;2.40;;;12.00;1.00;;;;;;5078773;28;20564;-75
2024/04/05 02:10:48;;;;;;;4.57;1.77;;;12.00;1.00;;;;;;5084292;28;20475;-76
2024/04/05 02:13:14;;;;;;;5.23;2.70;;;12.10;1.00;;;;;;5096528;27;20562;-75
2024/04/05 02:15:47;;;;;;;6.13;2.03;;;12.10;1.00;;;;;;5095227;27;20469;-75
2024/04/05 02:18:12;;;;;;;4.43;2.03;;;12.10;1.00;;;;;;5102503;27;20459;-76
2024/04/05 02:20:43;;;;;;;6.30;2.00;;;12.10;1.00;;;;;;5097871;27;20801;-75
2024/04/05 02:23:09;;;;;;;6.07;2.10;;;12.10;1.00;;;;;;5101494;27;21201;-72
2024/04/05 02:25:36;;;;;;;6.53;2.17;;;12.10;1.00;;;;;;5104233;27;20884;-72
2024/04/05 02:28:01;;;;;;;3.33;1.50;;;12.20;1.00;;;;;;5103823;27;20474;-72
2024/04/05 02:30:28;;;;;;;4.47;2.03;;;12.30;1.00;;;;;;5101538;27;20455;-72
2024/04/05 02:32:55;;;;;;;4.90;1.47;;;12.30;1.00;;;;;;5101587;27;20232;-72
2024/04/05 02:35:22;;;;;;;2.87;1.53;;;12.30;1.00;;;;;;5103128;27;20467;-73
2024/04/05 02:37:48;;;;;;;4.83;2.13;;;12.30;1.00;;;;;;5098806;27;20573;-73
2024/04/05 02:40:15;;;;;;;5.27;2.80;;;12.30;1.00;;;;;;5098283;27;20453;-73
2024/04/05 02:42:41;;;;;;;6.27;2.20;;;12.30;1.00;;;;;;5102532;27;21456;-73
2024/04/05 02:45:08;;;;;;;2.17;1.30;;;12.20;1.00;;;;;;5101865;27;20480;-72
2024/04/05 02:47:34;;;;;;;3.60;1.70;;;12.20;1.00;;;;;;5097241;27;20244;-73
2024/04/05 02:50:02;;;;;;;4.30;1.90;;;12.20;1.00;;;;;;5101607;27;20474;-71
2024/04/05 02:52:28;;;;;;;4.20;1.60;;;12.20;1.00;;;;;;5103473;27;20292;-71
2024/04/05 02:54:55;;;;;;;4.80;1.80;;;12.20;1.00;;;;;;5101404;27;20452;-72
2024/04/05 02:57:21;;;;;;;3.33;1.90;;;12.30;1.00;;;;;;5077850;28;20562;-72
2024/04/05 02:59:48;;;;;;;4.57;1.47;;;12.30;1.00;;;;;;5081099;27;20479;-74
2024/04/05 03:02:14;;;;;;;5.73;2.10;;;12.30;1.00;;;;;;5079352;28;20520;-72
2024/04/05 03:04:41;;;;;;;5.00;1.97;;;12.30;1.00;;;;;;5100987;27;20463;-73
2024/04/05 03:07:08;;;;;;;6.60;2.30;;;12.20;1.00;;;;;;5098792;27;20560;-72
2024/04/05 03:09:36;;;;;;;5.63;2.07;;;12.20;1.00;;;;;;5080846;27;21122;-72
2024/04/05 03:12:02;;;;;;;4.20;1.77;;;12.20;1.00;;;;;;5097917;27;21048;-73
2024/04/05 03:14:29;;;;;;;4.97;1.93;;;12.10;1.00;;;;;;5102326;27;21023;-73
2024/04/05 03:16:55;;;;;;;3.83;1.87;;;12.10;1.00;;;;;;5102089;27;20463;-73
2024/04/05 03:19:23;;;;;;;6.70;3.10;;;12.10;1.00;;;;;;5106414;27;20589;-72
2024/04/05 03:21:48;;;;;;;4.20;1.97;;;12.00;1.00;;;;;;5099170;27;21278;-75
2024/04/05 03:24:17;;;;;;;2.83;1.40;;;12.00;1.00;;;;;;5085832;27;20514;-74
2024/04/05 03:26:43;;;;;;;6.70;1.97;;;12.00;1.00;;;;;;5094543;27;20460;-74
2024/04/05 03:29:10;;;;;;;3.80;1.83;;;12.00;1.00;;;;;;5106818;27;20495;-76
2024/04/05 03:31:37;;;;;;;4.07;1.93;;;12.00;1.00;;;;;;5105036;27;20313;-78
2024/04/05 03:34:04;;;;;;;2.97;1.87;;;12.00;1.00;;;;;;5104703;27;20467;-75
2024/04/05 03:36:30;;;;;;;3.67;1.90;;;12.10;1.00;;;;;;5108297;27;20453;-75
2024/04/05 03:39:00;;;;;;;5.27;2.20;;;12.10;1.00;;;;;;5109590;27;20548;-74
2024/04/05 03:41:28;;;;;;;4.03;2.30;;;12.10;1.00;;;;;;5106115;27;20449;-75
2024/04/05 03:43:55;;;;;;;5.70;2.10;;;12.00;1.00;;;;;;5105136;27;20549;-75
2024/04/05 03:46:22;;;;;;;4.73;2.57;;;12.00;1.00;;;;;;5112106;27;20546;-75
2024/04/05 03:48:51;;;;;;;7.93;3.23;;;12.00;1.00;;;;;;5108129;27;20538;-76
2024/04/05 03:51:17;;;;;;;4.10;2.37;;;12.00;1.00;;;;;;5103561;27;20445;-76
2024/04/05 03:53:44;;;;;;;7.60;2.17;;;12.00;1.00;;;;;;5109883;27;20472;-75
2024/04/05 03:56:10;;;;;;;4.50;2.30;;;12.00;1.00;;;;;;5102543;27;21824;-76
2024/04/05 03:58:39;;;;;;;6.90;2.40;;;12.00;1.00;;;;;;5094224;27;20541;-77
2024/04/05 04:01:05;;;;;;;7.37;3.03;;;12.00;1.00;;;;;;5102683;27;20427;-75
2024/04/05 04:03:32;;;;;;;5.30;2.57;;;12.00;1.00;;;;;;5086387;27;20470;-75
2024/04/05 04:05:58;;;;;;;4.57;1.90;;;12.10;1.00;;;;;;5079578;27;20574;-75
2024/04/05 04:08:25;;;;;;;2.17;1.80;;;12.10;1.00;;;;;;5083850;27;20829;-75
2024/04/05 04:10:52;;;;;;;4.87;2.53;;;12.10;1.00;;;;;;5086624;28;20469;-76
2024/04/05 04:13:19;;;;;;;6.07;2.40;;;12.20;1.00;;;;;;5075725;28;21065;-76
2024/04/05 04:15:46;;;;;;;8.30;2.27;;;12.20;1.00;;;;;;5083664;27;20849;-76
2024/04/05 04:18:13;;;;;;;5.53;2.90;;;12.20;1.00;;;;;;5101680;27;20453;-74
2024/04/05 04:20:40;;;;;;;9.60;3.20;;;12.20;1.00;;;;;;5092141;27;20471;-76
2024/04/05 04:23:07;;;;;;;6.67;2.80;;;12.20;1.00;;;;;;5083482;28;20475;-75
2024/04/05 04:25:33;;;;;;;7.00;2.60;;;12.30;1.00;;;;;;5087015;28;20470;-76
2024/04/05 04:28:01;;;;;;;5.37;3.00;;;12.20;1.00;;;;;;5080274;27;20488;-75
2024/04/05 04:30:28;;;;;;;6.97;2.70;;;12.30;1.00;;;;;;5087013;27;20459;-74
2024/04/05 04:33:00;;;;;;;5.77;2.53;;;12.30;1.00;;;;;;5083024;28;20520;-73
2024/04/05 04:35:26;;;;;;;7.23;2.47;;;12.20;1.00;;;;;;5084228;28;21294;-73
2024/04/05 04:37:54;;;;;;;5.77;2.40;;;12.10;1.00;;;;;;5085723;27;20479;-74
2024/04/05 04:40:20;;;;;;;7.30;2.60;;;12.10;1.00;;;;;;5080392;28;20487;-72
2024/04/05 04:42:48;;;;;;;3.50;2.00;;;12.00;1.00;;;;;;5081198;28;20464;-74
2024/04/05 04:45:14;;;;;;;3.10;2.00;;;11.90;1.00;;;;;;5082079;27;20947;-74
2024/04/05 04:47:41;;;;;;;9.50;2.43;;;11.90;1.00;;;;;;5080574;27;20530;-74
2024/04/05 04:50:08;;;;;;;8.90;2.80;;;11.80;1.00;;;;;;5084807;27;22929;-74
2024/04/05 04:52:37;;;;;;;8.60;2.70;;;11.80;1.00;;;;;;5081874;28;20817;-75
2024/04/05 04:55:03;;;;;;;4.10;1.80;;;11.80;1.00;;;;;;5082962;28;20474;-72
2024/04/05 04:57:32;;;;;;;4.50;2.07;;;11.70;1.00;;;;;;5086415;27;20649;-72
2024/04/05 04:59:59;;;;;;;5.03;2.10;;;11.70;1.00;;;;;;5085836;27;20467;-73
2024/04/05 05:02:26;;;;;;;4.33;2.10;;;11.70;1.00;;;;;;5095312;27;20453;-73
2024/04/05 05:04:52;;;;;;;3.30;2.10;;;11.70;1.00;;;;;;5086720;27;20914;-72
2024/04/05 05:07:21;;;;;;;4.03;2.03;;;11.70;1.00;;;;;;5083549;28;20538;-74
2024/04/05 05:09:47;;;;;;;3.03;1.90;;;11.70;1.00;;;;;;5083707;28;20465;-73
2024/04/05 05:12:14;;;;;;;3.70;2.00;;;11.70;1.00;;;;;;5084337;27;20490;-73
2024/04/05 05:14:40;;;;;;;6.60;3.13;;;11.70;1.00;;;;;;5093630;27;20503;-74
2024/04/05 05:17:07;;;;;;;3.90;2.70;;;11.70;1.00;;;;;;5080639;27;20872;-75
2024/04/05 05:19:33;;;;;;;9.57;2.87;;;11.70;1.00;;;;;;5083001;27;20473;-73
2024/04/05 05:22:00;;;;;;;10.27;3.03;;;11.80;1.00;;;;;;5086531;28;20994;-74
2024/04/05 05:24:28;;;;;;;5.53;2.77;;;11.80;1.00;;;;;;5084841;27;20462;-73
2024/04/05 05:26:55;;;;;;;7.60;4.07;;;11.80;1.00;;;;;;5096759;27;20551;-73
2024/04/05 05:29:21;;;;;;;7.10;2.00;;;11.90;1.00;;;;;;5096910;27;20471;-77
2024/04/05 05:31:48;;;;;;;6.90;2.80;;;12.00;1.00;;;;;;5077688;28;20520;-73
2024/04/05 05:34:14;;;;;;;5.30;2.10;;;12.10;1.00;;;;;;5083868;27;20964;-72
2024/04/05 05:36:41;;;;;;;4.63;1.80;;;12.10;1.00;;;;;;5092625;27;20480;-73
2024/04/05 05:39:07;;;;;;;4.00;2.20;;;12.30;1.00;;;;;;5081901;27;20984;-75
2024/04/05 05:41:35;;;;;;;7.27;2.50;;;12.30;1.00;;;;;;5076867;27;20497;-76
2024/04/05 05:44:01;;;;;;;5.13;3.03;;;12.40;1.00;;;;;;5079736;28;20569;-75
2024/04/05 05:46:28;;;;;;;4.40;2.33;;;12.40;1.00;;;;;;5079514;28;20748;-75
2024/04/05 05:48:54;;;;;;;7.03;2.80;;;12.50;1.00;;;;;;5098305;27;20958;-71
2024/04/05 05:51:22;;;;;;;7.20;4.93;;;12.60;1.00;;;;;;5103267;27;20471;-70
2024/04/05 05:53:48;;;;;;;6.40;2.10;;;12.60;1.00;;;;;;5099134;27;20466;-72
2024/04/05 05:56:15;;;;;;;5.73;2.30;;;12.70;1.00;;;;;;5102557;27;20550;-71
2024/04/05 05:58:43;;;;;;;4.90;2.23;;;12.80;1.00;;;;;;5098614;27;20454;-72
2024/04/05 06:01:10;;;;;;;4.10;2.33;;;12.90;1.00;;;;;;5100286;27;20872;-75
2024/04/05 06:03:36;;;;;;;6.13;2.27;;;12.90;1.00;;;;;;5102431;27;20599;-72
2024/04/05 06:06:06;;;;;;;5.33;1.93;;;12.90;1.00;;;;;;5099314;27;20463;-72
2024/04/05 06:08:32;;;;;;;4.37;2.50;;;12.90;1.00;;;;;;5099120;27;20450;-70
2024/04/05 06:10:59;;;;;;;4.67;2.33;;;12.90;1.00;;;;;;5097901;27;20975;-72
2024/04/05 06:13:25;;;;;;;5.13;2.30;;;13.00;1.00;;;;;;5098189;27;20468;-71
2024/04/05 06:15:57;;;;;;;4.03;2.63;;;13.00;1.00;;;;;;5077901;28;20459;-71
2024/04/05 06:18:26;;;;;;;4.53;3.50;;;13.20;1.00;;;;;;5089248;27;20971;-72
2024/04/05 06:20:54;;;;;;;6.33;2.67;;;13.20;1.00;;;;;;5080242;28;20475;-72
2024/04/05 06:23:20;;;;;;;6.53;2.73;;;13.30;1.00;;;;;;5082713;27;20573;-71
2024/04/05 06:25:55;;;;;;;6.03;3.00;;;13.40;1.00;;;;;;5086628;27;20463;-70
2024/04/05 06:28:21;;;;;;;8.60;2.67;;;13.40;1.00;;;;;;5089382;27;20458;-70
2024/04/05 06:30:48;;;;;;;5.90;2.30;;;13.50;1.00;;;;;;5092045;27;20469;-72
2024/04/05 06:33:16;;;;;;;8.23;2.87;;;13.50;1.00;;;;;;5082606;28;20467;-77
2024/04/05 06:35:43;;;;;;;6.70;2.80;;;13.60;1.00;;;;;;5080945;27;20608;-72
2024/04/05 06:38:10;;;;;;;7.73;3.10;;;13.70;1.00;;;;;;5080391;27;21716;-72
2024/04/05 06:40:39;;;;;;;6.10;2.40;;;13.80;1.00;;;;;;5082609;28;20527;-73
2024/04/05 06:43:06;;;;;;;4.10;2.30;;;14.00;1.00;;;;;;5080139;28;20535;-72
2024/04/05 06:45:33;;;;;;;6.10;2.97;;;14.00;1.00;;;;;;5079492;27;20454;-74
2024/04/05 06:48:01;;;;;;;10.37;4.27;;;14.00;1.00;;;;;;5078182;28;20533;-71
2024/04/05 06:50:32;;;;;;;4.43;2.80;;;14.10;1.00;;;;;;5081241;28;20453;-71
2024/04/05 06:52:58;;;;;;;5.37;2.57;;;14.10;1.00;;;;;;5078107;28;20465;-72
2024/04/05 06:55:26;;;;;;;9.07;2.47;;;14.10;1.00;;;;;;5080788;28;20460;-73
2024/04/05 06:57:52;;;;;;;5.40;2.20;;;14.10;1.00;;;;;;5079548;28;20466;-72
2024/04/05 07:00:20;;;;;;;5.10;2.63;;;14.20;1.00;;;;;;5077387;28;20469;-71
2024/04/05 07:02:46;;;;;;;5.37;2.80;;;14.40;1.00;;;;;;5079306;27;20629;-72
2024/04/05 07:05:14;;;;;;;9.47;2.63;;;14.50;1.00;;;;;;5080984;27;20468;-71
2024/04/05 07:07:41;;;;;;;9.50;3.03;;;14.60;1.00;;;;;;5074848;28;20450;-71
2024/04/05 07:10:09;;;;;;;10.63;3.57;;;14.70;1.00;;;;;;5077204;28;20462;-71
2024/04/05 07:12:35;;;;;;;7.33;2.63;;;14.80;1.00;;;;;;5079309;28;20485;-72
2024/04/05 07:15:07;;;;;;;6.33;2.80;;;14.80;1.00;;;;;;5082607;27;20465;-72
2024/04/05 07:17:33;;;;;;;7.50;2.57;;;14.80;1.00;;;;;;5084550;27;20465;-73
2024/04/05 07:20:00;;;;;;;11.70;3.50;;;14.80;1.00;;;;;;5076199;27;20482;-74
2024/04/05 07:22:27;;;;;;;10.30;3.20;;;14.90;1.00;;;;;;5076917;28;20489;-75
2024/04/05 07:24:55;;;;;;;8.50;2.47;;;14.90;1.00;;;;;;5076348;27;20483;-75
2024/04/05 07:27:22;;;;;;;6.97;2.37;;;15.00;1.00;;;;;;5084961;27;20501;-72
2024/04/05 07:29:49;;;;;;;9.30;2.93;;;15.20;1.00;;;;;;5083138;27;20462;-71
2024/04/05 07:32:15;;;;;;;8.53;2.77;;;15.40;1.00;;;;;;5089404;27;20461;-72
2024/04/05 07:34:42;;;;;;;6.77;3.73;;;15.50;1.00;;;;;;5078707;28;22132;-75
2024/04/05 07:37:09;;;;;;;6.43;2.60;;;15.60;1.00;;;;;;5084259;28;21799;-72
2024/04/05 07:39:39;;;;;;;5.83;2.13;;;15.70;1.00;;;;;;5089305;27;20460;-71
2024/04/05 07:42:06;;;;;;;9.70;3.40;;;15.80;1.00;;;;;;5082662;27;20517;-72
2024/04/05 07:44:34;;;;;;;8.60;3.40;;;15.80;1.00;;;;;;5080641;28;20528;-71
2024/04/05 07:47:00;;;;;;;7.27;2.63;;;15.90;1.00;;;;;;5078578;27;20515;-72
2024/04/05 07:49:43;;;;;;;8.20;2.93;;;16.00;1.00;;;;;;5094532;27;20553;-78
2024/04/05 07:52:09;;;;;;;8.50;3.20;;;16.00;1.00;;;;;;5089015;27;20474;-72
2024/04/05 07:54:36;;;;;;;9.90;3.40;;;16.20;1.00;;;;;;5085602;27;20458;-71
2024/04/05 07:57:03;;;;;;;5.60;2.40;;;16.50;1.00;;;;;;5080390;27;20541;-72
2024/04/05 07:59:32;;;;;;;7.88;3.20;;;16.60;1.00;;;;;;5102070;27;20441;-74
2024/04/05 08:01:58;;;;;;;6.53;2.73;;;16.60;1.00;;;;;;5077233;27;20247;-72
2024/04/05 08:04:24;;;;;;;9.13;2.63;;;16.50;1.00;;;;;;5073140;28;20469;-71
2024/04/05 08:06:53;;;;;;;9.00;4.03;;;16.50;1.00;;;;;;5080681;27;20339;-72
2024/04/05 08:09:20;;;;;;;10.73;4.20;;;16.60;1.00;;;;;;5108138;27;20554;-70
2024/04/05 08:11:45;;;;;;;8.13;3.07;;;16.70;1.00;;;;;;5087059;27;20514;-71
2024/04/05 08:14:12;;;;;;;8.23;2.63;;;16.90;1.00;;;;;;5078653;27;20517;-71
2024/04/05 08:16:40;;;;;;;8.53;3.10;;;17.00;1.00;;;;;;5080102;28;20478;-70
2024/04/05 08:19:07;;;;;;;11.17;2.40;;;17.00;1.00;;;;;;5076663;27;20922;-72
2024/04/05 08:21:33;;;;;;;5.97;3.00;;;17.10;1.00;;;;;;5077553;27;20487;-72
2024/04/05 08:24:00;;;;;;;7.03;2.80;;;17.20;1.00;;;;;;5079562;28;20991;-71
2024/04/05 08:26:26;;;;;;;9.23;3.30;;;17.30;1.00;;;;;;5087119;27;20450;-72
2024/04/05 08:28:53;;;;;;;10.73;3.33;;;17.20;1.00;;;;;;5083088;27;20905;-70
2024/04/05 08:31:19;;;;;;;10.90;2.93;;;17.20;1.00;;;;;;5080724;27;20474;-71
2024/04/05 08:33:48;;;;;;;7.87;2.97;;;17.30;1.00;;;;;;5081675;28;20501;-71
2024/04/05 08:36:14;;;;;;;7.40;3.27;;;17.40;1.00;;;;;;5084011;28;20863;-74
2024/04/05 08:38:41;;;;;;;5.63;2.50;;;17.50;1.00;;;;;;5101139;27;20462;-70
2024/04/05 08:41:08;;;;;;;8.93;2.87;;;17.40;1.00;;;;;;5100571;27;20461;-71
2024/04/05 08:43:40;;;;;;;9.90;3.40;;;17.30;1.00;;;;;;5084828;28;20946;-71
2024/04/05 08:46:06;;;;;;;4.80;3.03;;;17.20;1.00;;;;;;5079523;27;20451;-73
2024/04/05 08:48:35;;;;;;;9.97;2.77;;;17.30;1.00;;;;;;5079464;28;20541;-72
2024/04/05 08:51:03;;;;;;;8.30;2.97;;;17.20;1.00;;;;;;5080088;28;20546;-74
2024/04/05 08:53:30;;;;;;;9.23;3.00;;;17.10;1.00;;;;;;5081507;28;20550;-74
2024/04/05 08:55:59;;;;;;;8.27;2.80;;;17.20;1.00;;;;;;5077096;27;20574;-75
2024/04/05 08:58:27;;;;;;;8.07;2.90;;;17.30;1.00;;;;;;5077066;27;20463;-75
2024/04/05 09:00:54;;;;;;;6.60;2.77;;;17.50;1.00;;;;;;5103775;27;20486;-75
2024/04/05 09:03:23;;;;;;;7.20;3.00;;;17.70;1.00;;;;;;5082364;27;20946;-76
2024/04/05 09:05:50;;;;;;;8.77;3.00;;;18.10;1.00;;;;;;5075029;28;20460;-75
2024/04/05 09:08:18;;;;;;;9.80;2.90;;;18.50;1.00;;;;;;5080653;28;20564;-75
2024/04/05 09:10:48;;;;;;;5.73;2.33;;;18.90;1.00;;;;;;5081286;28;20535;-76
2024/04/05 09:13:17;;;;;;;13.83;3.77;;;19.30;1.00;;;;;;5095596;27;21279;-74
2024/04/05 09:15:49;;;;;;;6.70;3.00;;;19.60;1.00;;;;;;5094765;27;20483;-76
2024/04/05 09:18:25;;;;;;;8.50;2.87;;;19.50;1.00;;;;;;5080443;27;20984;-75
2024/04/05 09:20:51;;;;;;;9.40;2.80;;;19.50;1.00;;;;;;5084397;27;20462;-76
2024/04/05 09:23:19;;;;;;;7.23;2.57;;;19.60;1.00;;;;;;5087813;27;20445;-72
2024/04/05 09:25:45;;;;;;;9.60;2.97;;;19.70;1.00;;;;;;5081975;28;20461;-72
2024/04/05 09:28:14;;;;;;;6.23;2.70;;;19.90;1.00;;;;;;5082237;27;20987;-72
2024/04/05 09:30:41;;;;;;;10.03;2.90;;;19.80;1.00;;;;;;5100880;27;20523;-74
2024/04/05 09:33:08;;;;;;;6.30;2.90;;;19.70;1.00;;;;;;5101395;27;20448;-73
2024/04/05 09:35:37;;;;;;;9.10;3.47;;;19.80;1.00;;;;;;5103432;27;20484;-74
2024/04/05 09:38:05;;;;;;;7.83;2.47;;;19.50;1.00;;;;;;5101301;27;20452;-74
2024/04/05 09:40:35;;;;;;;7.37;2.97;;;19.30;1.00;;;;;;5103872;27;20529;-72
2024/04/05 09:43:03;;;;;;;4.67;2.20;;;19.20;1.00;;;;;;5094010;27;20459;-72
2024/04/05 09:45:31;;;;;;;6.37;2.67;;;19.10;1.00;;;;;;5099766;27;20459;-74
2024/04/05 09:47:58;;;;;;;6.37;2.83;;;18.90;1.00;;;;;;5099836;27;20464;-74
2024/04/05 09:50:28;;;;;;;7.40;2.50;;;18.90;1.00;;;;;;5100604;27;20470;-75
2024/04/05 09:52:56;;;;;;;4.33;2.27;;;18.70;1.00;;;;;;5092286;27;20471;-73
2024/04/05 09:55:23;;;;;;;5.63;3.27;;;18.60;1.00;;;;;;5102049;27;20471;-71
2024/04/05 09:57:55;;;;;;;4.63;3.27;;;18.50;1.00;;;;;;5079528;27;20615;-73
2024/04/05 10:00:24;;;;;;;3.83;2.50;;;18.40;1.00;;;;;;5080373;27;20492;-71
2024/04/05 10:02:54;;;;;;;4.70;2.70;;;18.30;1.00;;;;;;5082485;27;20511;-72
2024/04/05 10:05:24;;;;;;;6.93;2.27;;;18.20;1.00;;;;;;5075513;28;20553;-73
2024/04/05 10:07:51;;;;;;;5.90;2.93;;;18.30;1.00;;;;;;5083481;27;21034;-72
2024/04/05 10:10:29;;;;;;;8.53;3.30;;;18.30;1.00;;;;;;5079511;27;21121;-72
2024/04/05 10:12:58;;;;;;;4.47;2.30;;;18.50;1.00;;;;;;5078657;27;20637;-72
2024/04/05 10:15:25;;;;;;;6.13;3.23;;;18.90;1.00;;;;;;5078171;27;20477;-71
2024/04/05 10:17:56;;;;;;;5.50;2.73;;;19.80;1.00;;;;;;5080809;28;20467;-71
2024/04/05 10:20:22;;;;;;;6.27;2.80;;;20.50;1.00;;;;;;5078446;28;20614;-72
2024/04/05 10:22:58;;;;;;;9.80;3.47;;;20.90;1.00;;;;;;5076893;27;20459;-72
2024/04/05 10:25:24;;;;;;;5.40;3.23;;;20.80;1.00;;;;;;5074263;28;20464;-72
2024/04/05 10:27:54;;;;;;;5.30;3.03;;;20.30;1.00;;;;;;5072937;27;20463;-74
2024/04/05 10:30:22;;;;;;;4.50;2.70;;;20.00;1.00;;;;;;5087110;27;20470;-75
2024/04/05 10:32:57;;;;;;;6.73;2.43;;;19.90;1.00;;;;;;5075880;27;20454;-73
2024/04/05 10:35:24;;;;;;;4.80;2.47;;;20.10;1.00;;;;;;5096487;27;21811;-72
2024/04/05 10:37:58;;;;;;;4.77;3.40;;;20.40;1.00;;;;;;5077249;28;20455;-71
2024/04/05 10:40:24;;;;;;;6.43;2.70;;;20.80;1.00;;;;;;5079379;27;20471;-73
2024/04/05 10:42:51;;;;;;;7.43;2.63;;;21.20;1.00;;;;;;5080582;28;20462;-74
2024/04/05 10:45:17;;;;;;;7.70;3.00;;;21.30;1.00;;;;;;5082284;28;21746;-74
2024/04/05 10:47:53;;;;;;;3.93;2.40;;;21.70;1.00;;;;;;5078500;28;20553;-73
2024/04/05 10:50:20;;;;;;;4.33;2.60;;;22.60;1.00;;;;;;5092906;27;20515;-74
2024/04/05 10:52:52;;;;;;;7.43;2.93;;;22.80;1.00;;;;;;5103957;27;20448;-73
2024/04/05 10:55:19;;;;;;;5.80;2.60;;;22.50;1.00;;;;;;5102246;27;21006;-73
2024/04/05 10:57:47;;;;;;;6.03;2.67;;;22.40;1.00;;;;;;5097638;27;20480;-73
2024/04/05 11:00:14;;;;;;;7.13;2.23;;;22.30;1.00;;;;;;5081215;28;20434;-74
2024/04/05 11:02:42;;;;;;;7.50;2.70;;;22.20;1.00;;;;;;5079284;27;20542;-76
2024/04/05 11:05:12;;;;;;;4.17;2.33;;;21.80;1.00;;;;;;5077914;28;20467;-73
2024/04/05 11:07:41;;;;;;;5.90;2.67;;;21.00;1.00;;;;;;5076620;27;20495;-76
2024/04/05 11:10:36;;;;;;;7.50;3.10;;;20.90;1.00;;;;;;5078184;27;20506;-74
2024/04/05 11:13:15;;;;;;;6.70;3.63;;;21.00;1.00;;;;;;5078155;28;20835;-74
2024/04/05 11:15:41;;;;;;;6.73;2.37;;;21.00;1.00;;;;;;5081451;27;20492;-73
2024/04/05 11:18:09;;;;;;;6.17;2.67;;;22.30;1.00;;;;;;5079868;28;20550;-75
2024/04/05 11:20:39;;;;;;;4.57;3.30;;;24.20;1.00;;;;;;5082749;28;20857;-75
2024/04/05 11:23:08;;;;;;;5.00;2.33;;;25.80;1.00;;;;;;5077833;28;20538;-73
2024/04/05 11:25:34;;;;;;;3.80;2.27;;;26.90;1.00;;;;;;5079481;28;20561;-76
2024/04/05 11:28:12;;;;;;;7.10;2.63;;;27.30;1.00;;;;;;5077300;28;20475;-75
2024/04/05 11:30:39;;;;;;;4.30;2.70;;;27.10;1.00;;;;;;5088502;27;20489;-74
2024/04/05 11:33:07;;;;;;;4.57;2.40;;;27.40;1.00;;;;;;5079296;27;20496;-75
2024/04/05 11:35:34;;;;;;;4.17;2.20;;;28.10;1.00;;;;;;5092097;27;20474;-73
2024/04/05 11:38:02;;;;;;;3.70;2.17;;;29.20;1.00;;;;;;5101013;27;20600;-74
2024/04/05 11:40:28;;;;;;;3.97;2.30;;;29.10;1.00;;;;;;5104321;27;20464;-72
2024/04/05 11:42:57;;;;;;;6.13;2.70;;;28.70;1.00;;;;;;5105605;27;20441;-74
2024/04/05 11:45:23;;;;;;;4.83;2.40;;;28.40;1.00;;;;;;5106792;27;20548;-74
2024/04/05 11:47:50;;;;;;;5.00;2.33;;;26.80;1.00;;;;;;5102029;27;20461;-73
2024/04/05 11:50:16;;;;;;;5.07;2.27;;;25.10;1.00;;;;;;5107656;27;20491;-76
2024/04/05 11:52:44;;;;;;;4.30;2.20;;;23.80;1.00;;;;;;5105165;27;20509;-78
2024/04/05 11:55:12;;;;;;;8.93;3.00;;;22.90;1.00;;;;;;5107532;27;20462;-76
2024/04/05 11:57:39;;;;;;;6.07;2.07;;;22.60;1.00;;;;;;5106441;27;20453;-73
2024/04/05 12:00:10;;;;;;;3.87;2.33;;;23.10;1.00;;;;;;5105539;27;20544;-73
2024/04/05 12:02:39;;;;;;;6.77;2.63;;;24.60;1.00;;;;;;5104675;27;20554;-72
2024/04/05 12:05:06;;;;;;;4.33;1.93;;;25.50;1.00;;;;;;5101846;27;20988;-73
2024/04/05 12:07:33;;;;;;;6.10;2.27;;;26.90;1.00;;;;;;5099521;27;20454;-74
2024/04/05 12:09:59;;;;;;;3.50;2.10;;;26.50;1.00;;;;;;5103408;27;20481;-74
2024/04/05 12:12:28;;;;;;;2.63;1.67;;;27.10;1.00;;;;;;5105908;27;20453;-75
2024/04/05 12:14:56;;;;;;;8.10;2.87;;;26.70;1.00;;;;;;5103864;27;20978;-73
2024/04/05 12:17:24;;;;;;;5.10;2.50;;;25.90;1.00;;;;;;5104039;27;20543;-73
2024/04/05 12:19:50;;;;;;;3.63;2.10;;;25.20;1.00;;;;;;5105789;27;20529;-73
2024/04/05 12:22:17;;;;;;;2.70;1.80;;;24.30;1.00;;;;;;5105258;27;20450;-74
2024/04/05 12:24:46;;;;;;;4.33;1.67;;;23.60;1.00;;;;;;5102433;27;20911;-73
2024/04/05 12:27:13;;;;;;;6.43;2.17;;;24.00;1.00;;;;;;5097054;27;20515;-74
2024/04/05 12:29:45;;;;;;;3.90;2.00;;;25.00;1.00;;;;;;5115579;27;20563;-73
2024/04/05 12:32:12;;;;;;;5.23;2.50;;;26.00;1.00;;;;;;5104180;27;20498;-75
2024/04/05 12:34:38;;;;;;;4.93;2.63;;;26.40;1.00;;;;;;5103547;27;20683;-74
2024/04/05 12:37:08;;;;;;;5.27;2.70;;;26.40;1.00;;;;;;5107860;27;20468;-73
2024/04/05 12:39:34;;;;;;;3.47;1.87;;;26.70;1.00;;;;;;5103061;27;20460;-72
2024/04/05 12:42:02;;;;;;;4.17;2.43;;;26.00;1.00;;;;;;5106166;27;20539;-73
2024/04/05 12:44:28;;;;;;;2.90;1.87;;;25.00;1.00;;;;;;5107879;27;20462;-73
2024/04/05 12:46:59;;;;;;;3.80;1.77;;;24.50;1.00;;;;;;5103876;27;20461;-74
2024/04/05 12:49:25;;;;;;;2.60;1.60;;;24.50;1.00;;;;;;5105380;27;20471;-74
2024/04/05 12:51:52;;;;;;;3.00;1.97;;;25.00;1.00;;;;;;5107700;27;20462;-74
2024/04/05 12:54:18;;;;;;;5.33;2.10;;;25.60;1.00;;;;;;5109346;27;20489;-76
2024/04/05 12:56:48;;;;;;;3.90;2.23;;;25.60;1.00;;;;;;5108075;27;20971;-75
2024/04/05 12:59:14;;;;;;;6.40;2.37;;;24.50;1.00;;;;;;5095428;27;21069;-77